createdAt,value
2022-08-01T00:01:41.410Z,96679.06
2022-08-01T00:04:08.927Z,96678.25
2022-08-01T00:06:36.442Z,96674.75
2022-08-01T00:09:04.183Z,96676.63
2022-08-01T00:11:31.776Z,96679.53
2022-08-01T00:14:00.696Z,96682.72
2022-08-01T00:16:28.422Z,96675.75
2022-08-01T00:18:56.014Z,96677.31
2022-08-01T00:21:23.797Z,96677.31
2022-08-01T00:23:51.374Z,96673.63
2022-08-01T00:26:18.972Z,96682.94
2022-08-01T00:28:46.505Z,96680.56
2022-08-01T00:31:15.351Z,96688.28
2022-08-01T00:33:42.878Z,96686.94
2022-08-01T00:36:10.461Z,96686.41
2022-08-01T00:38:37.971Z,96685.84
2022-08-01T00:41:05.534Z,96686.38
2022-08-01T00:43:33.062Z,96681.53
2022-08-01T00:46:00.597Z,96693.75
2022-08-01T00:48:29.516Z,96692.66
2022-08-01T00:50:57.067Z,96689.19
2022-08-01T00:53:24.910Z,96685.75
2022-08-01T00:55:53.616Z,96685.19
2022-08-01T00:58:21.740Z,96685.19
2022-08-01T01:00:53.707Z,96683.34
2022-08-01T01:03:49.381Z,96680.69
2022-08-01T01:06:25.653Z,96683.38
2022-08-01T01:09:04.259Z,96685.22
2022-08-01T01:11:43.353Z,96693.75
2022-08-01T01:14:15.477Z,96684.47
2022-08-01T01:16:45.485Z,96695.38
2022-08-01T01:19:18.457Z,96701.25
2022-08-01T01:22:11.255Z,96694.63
2022-08-01T01:24:46.902Z,96705.00
2022-08-01T01:27:23.278Z,96693.31
2022-08-01T01:30:00.558Z,96700.22
2022-08-01T01:32:34.883Z,96700.47
2022-08-01T01:35:07.359Z,96700.72
2022-08-01T01:37:35.617Z,96706.59
2022-08-01T01:40:04.797Z,96702.09
2022-08-01T01:42:33.953Z,96703.38
2022-08-01T01:45:05.988Z,96696.47
2022-08-01T01:47:34.817Z,96702.31
2022-08-01T01:50:04.846Z,96699.88
2022-08-01T01:52:33.855Z,96709.19
2022-08-01T01:55:03.470Z,96705.47
2022-08-01T01:57:33.039Z,96697.75
2022-08-01T02:00:03.146Z,96704.94
2022-08-01T02:02:31.460Z,96708.13
2022-08-01T02:05:00.110Z,96706.53
2022-08-01T02:07:29.438Z,96708.66
2022-08-01T02:09:58.394Z,96708.09
2022-08-01T02:12:26.571Z,96712.56
2022-08-01T02:14:56.139Z,96717.84
2022-08-01T02:17:26.588Z,96718.38
2022-08-01T02:19:55.316Z,96720.72
2022-08-01T02:22:29.313Z,96713.78
2022-08-01T02:25:01.554Z,96726.03
2022-08-01T02:27:31.965Z,96723.94
2022-08-01T02:30:02.069Z,96719.66
2022-08-01T02:32:34.105Z,96720.66
2022-08-01T02:45:37.309Z,96721.53
2022-08-01T02:48:12.570Z,96724.13
2022-08-01T02:50:41.689Z,96729.63
2022-08-01T02:53:11.281Z,96727.19
2022-08-01T02:55:41.382Z,96731.91
2022-08-01T02:58:10.549Z,96723.88
2022-08-01T03:00:41.833Z,96722.81
2022-08-01T03:03:14.032Z,96730.22
2022-08-01T03:05:43.108Z,96730.22
2022-08-01T03:08:12.078Z,96730.75
2022-08-01T03:10:46.381Z,96724.63
2022-08-01T03:13:15.521Z,96735.50
2022-08-01T03:15:45.104Z,96735.41
2022-08-01T03:18:16.472Z,96739.09
2022-08-01T03:20:45.441Z,96737.41
2022-08-01T03:23:14.364Z,96734.44
2022-08-01T03:25:45.037Z,96738.88
2022-08-01T03:28:15.954Z,96738.31
2022-08-01T03:30:45.746Z,96738.06
2022-08-01T03:33:14.865Z,96741.28
2022-08-01T03:35:48.833Z,96736.50
2022-08-01T03:38:21.040Z,96738.47
2022-08-01T03:40:50.743Z,96742.22
2022-08-01T03:43:22.430Z,96743.28
2022-08-01T03:45:52.543Z,96745.16
2022-08-01T03:48:29.796Z,96745.44
2022-08-01T03:50:58.977Z,96745.44
2022-08-01T03:53:30.584Z,96747.53
2022-08-01T03:56:00.578Z,96742.41
2022-08-01T03:58:29.259Z,96748.66
2022-08-01T04:00:57.723Z,96745.97
2022-08-01T04:03:27.659Z,96750.66
2022-08-01T04:05:55.313Z,96748.97
2022-08-01T04:08:22.847Z,96744.41
2022-08-01T04:10:59.457Z,96751.81
2022-08-01T04:13:36.829Z,96753.91
2022-08-01T04:16:05.214Z,96758.97
2022-08-01T04:18:34.182Z,96753.97
2022-08-01T04:21:01.691Z,96757.19
2022-08-01T04:23:32.414Z,96756.94
2022-08-01T04:26:03.438Z,96764.66
2022-08-01T04:28:33.493Z,96765.47
2022-08-01T04:31:02.381Z,96774.78
2022-08-01T04:33:31.949Z,96776.41
2022-08-01T04:36:05.081Z,96779.03
2022-08-01T04:38:35.313Z,96776.41
2022-08-01T04:41:03.999Z,96774.78
2022-08-01T04:43:37.753Z,96779.56
2022-08-01T04:46:05.670Z,96771.16
2022-08-01T04:48:34.030Z,96777.31
2022-08-01T04:51:02.917Z,96778.19
2022-08-01T04:53:33.276Z,96785.44
2022-08-01T04:56:01.586Z,96783.09
2022-08-01T04:58:29.114Z,96777.03
2022-08-01T05:00:56.671Z,96783.72
2022-08-01T05:03:24.206Z,96783.19
2022-08-01T05:05:51.739Z,96789.88
2022-08-01T05:08:20.596Z,96792.59
2022-08-01T05:10:48.080Z,96789.69
2022-08-01T05:13:15.587Z,96797.94
2022-08-01T05:18:10.566Z,96798.81
2022-08-01T05:20:38.815Z,96795.38
2022-08-01T05:23:06.684Z,96795.94
2022-08-01T05:25:58.078Z,96796.50
2022-08-01T05:28:26.609Z,96791.97
2022-08-01T05:30:55.740Z,96794.34
2022-08-01T05:33:23.610Z,96799.66
2022-08-01T05:35:51.128Z,96799.44
2022-08-01T05:38:18.667Z,96799.97
2022-08-01T05:40:47.524Z,96797.09
2022-08-01T05:43:15.030Z,96793.13
2022-08-01T05:45:43.313Z,96792.06
2022-08-01T05:48:10.978Z,96796.66
2022-08-01T05:50:38.547Z,96800.38
2022-08-01T05:53:06.072Z,96798.03
2022-08-01T05:55:33.577Z,96799.72
2022-08-01T05:58:02.475Z,96802.41
2022-08-01T06:00:30.214Z,96803.50
2022-08-01T06:02:57.710Z,96798.28
2022-08-01T06:05:25.399Z,96790.84
2022-08-01T06:07:52.992Z,96788.81
2022-08-01T06:10:20.571Z,96792.28
2022-08-01T06:12:48.073Z,96797.41
2022-08-01T06:15:16.942Z,96799.31
2022-08-01T06:17:44.449Z,96795.91
2022-08-01T06:20:12.219Z,96806.56
2022-08-01T06:22:39.768Z,96805.03
2022-08-01T06:25:10.017Z,96805.06
2022-08-01T06:27:37.558Z,96801.38
2022-08-01T06:30:05.877Z,96809.38
2022-08-01T06:32:35.071Z,96807.56
2022-08-01T06:35:02.559Z,96819.03
2022-08-01T06:37:31.092Z,96813.22
2022-08-01T06:40:01.903Z,96814.31
2022-08-01T06:42:29.899Z,96809.06
2022-08-01T06:44:57.601Z,96820.00
2022-08-01T06:47:25.190Z,96818.69
2022-08-01T06:49:54.014Z,96818.16
2022-08-01T06:52:21.531Z,96809.69
2022-08-01T06:54:49.037Z,96808.09
2022-08-01T06:57:16.572Z,96808.13
2022-08-01T06:59:54.280Z,96813.47
2022-08-01T07:02:22.828Z,96812.44
2022-08-01T07:04:50.537Z,96800.75
2022-08-01T07:07:19.375Z,96810.38
2022-08-01T07:09:46.884Z,96803.47
2022-08-01T07:12:14.409Z,96809.31
2022-08-01T07:14:42.007Z,96801.09
2022-08-01T07:17:09.527Z,96804.28
2022-08-01T07:19:38.537Z,96802.16
2022-08-01T07:22:06.501Z,96805.38
2022-08-01T07:24:35.802Z,96804.03
2022-08-01T07:27:11.474Z,96803.53
2022-08-01T07:29:50.895Z,96807.00
2022-08-01T07:32:18.416Z,96803.34
2022-08-01T07:34:45.890Z,96800.97
2022-08-01T07:37:13.416Z,96810.84
2022-08-01T07:39:42.261Z,96812.16
2022-08-01T07:42:10.062Z,96799.41
2022-08-01T07:44:38.204Z,96802.09
2022-08-01T07:47:06.526Z,96798.91
2022-08-01T07:49:39.374Z,96799.72
2022-08-01T07:52:08.026Z,96803.97
2022-08-01T07:54:36.039Z,96802.13
2022-08-01T07:57:05.383Z,96808.53
2022-08-01T07:59:32.939Z,96806.97
2022-08-01T08:02:01.247Z,96812.84
2022-08-01T08:04:29.708Z,96798.97
2022-08-01T08:06:57.218Z,96801.38
2022-08-01T08:09:24.820Z,96799.22
2022-08-01T08:11:52.372Z,96800.03
2022-08-01T08:14:23.670Z,96792.31
2022-08-01T08:17:00.198Z,96789.88
2022-08-01T08:19:37.994Z,96792.53
2022-08-01T08:22:07.465Z,96800.00
2022-08-01T08:24:35.292Z,96786.94
2022-08-01T08:27:03.226Z,96790.63
2022-08-01T08:29:33.692Z,96788.22
2022-08-01T08:32:02.409Z,96797.00
2022-08-01T08:34:30.662Z,96809.56
2022-08-01T08:36:59.181Z,96798.84
2022-08-01T08:39:27.448Z,96796.44
2022-08-01T08:41:55.233Z,96790.78
2022-08-01T09:57:31.842Z,96796.31
2022-08-01T10:00:02.112Z,96800.81
2022-08-01T10:02:35.572Z,96789.56
2022-08-01T10:05:08.077Z,96788.75
2022-08-01T10:07:43.946Z,96785.78
2022-08-01T11:17:54.585Z,96752.66
2022-08-01T12:52:13.373Z,96713.81
2022-08-01T12:57:34.304Z,96715.72
2022-08-01T13:00:28.942Z,96716.00
2022-08-01T13:35:59.177Z,96689.22
2022-08-01T13:38:44.206Z,96681.69
2022-08-01T13:47:32.057Z,96683.28
2022-08-01T13:50:01.590Z,96685.44
2022-08-01T13:52:31.565Z,96681.75
2022-08-01T13:54:59.137Z,96682.31
2022-08-01T13:57:36.653Z,96679.13
2022-08-01T14:00:06.624Z,96679.41
2022-08-01T14:02:34.908Z,96681.59
2022-08-01T14:05:02.448Z,96678.91
2022-08-01T14:07:31.325Z,96678.63
2022-08-01T14:10:17.481Z,96672.66
2022-08-01T14:12:46.438Z,96663.56
2022-08-01T14:15:36.799Z,96670.50
2022-08-01T14:18:03.861Z,96668.34
2022-08-01T14:20:33.832Z,96654.66
2022-08-01T14:23:02.774Z,96665.59
2022-08-01T14:26:03.013Z,96670.88
2022-08-01T14:28:18.526Z,96674.28
2022-08-01T14:30:46.346Z,96668.06
2022-08-01T14:33:14.760Z,96672.81
2022-08-01T14:35:52.339Z,96666.88
2022-08-01T14:38:34.171Z,96671.44
2022-08-01T14:41:04.172Z,96673.59
2022-08-01T14:43:33.577Z,96670.41
2022-08-01T14:46:01.875Z,96670.41
2022-08-01T14:48:30.165Z,96676.28
2022-08-01T14:50:58.041Z,96669.84
2022-08-01T14:53:25.572Z,96672.03
2022-08-01T14:55:54.405Z,96673.97
2022-08-01T14:58:21.976Z,96669.72
2022-08-01T15:00:49.579Z,96669.72
2022-08-01T15:03:17.176Z,96673.19
2022-08-01T15:05:44.702Z,96678.03
2022-08-01T15:08:12.222Z,96675.97
2022-08-01T15:10:39.864Z,96668.81
2022-08-01T15:13:08.766Z,96676.63
2022-08-01T15:15:36.288Z,96674.22
2022-08-01T15:18:03.858Z,96671.53
2022-08-01T15:20:31.544Z,96666.19
2022-08-01T15:22:59.046Z,96672.34
2022-08-01T15:25:26.612Z,96673.16
2022-08-01T15:28:10.164Z,96675.81
2022-08-01T15:30:37.689Z,96675.81
2022-08-01T15:33:05.712Z,96667.19
2022-08-01T15:35:33.343Z,96667.41
2022-08-01T15:38:00.935Z,96672.78
2022-08-01T15:40:29.252Z,96674.84
2022-08-01T15:42:56.945Z,96672.97
2022-08-01T15:48:14.799Z,96667.03
2022-08-01T15:50:42.364Z,96669.22
2022-08-01T15:53:09.874Z,96669.50
2022-08-01T15:55:37.733Z,96672.47
2022-08-01T15:58:06.501Z,96677.53
2022-08-01T16:00:39.136Z,96679.44
2022-08-01T16:03:07.726Z,96672.97
2022-08-01T16:05:42.563Z,96666.81
2022-08-01T16:08:11.202Z,96664.94
2022-08-01T16:10:38.719Z,96662.84
2022-08-01T16:13:07.389Z,96660.66
2022-08-01T16:15:37.724Z,96663.84
2022-08-01T16:18:06.262Z,96661.69
2022-08-01T16:20:33.881Z,96658.72
2022-08-01T16:23:01.544Z,96665.16
2022-08-01T16:25:29.074Z,96661.16
2022-08-01T16:27:56.605Z,96663.06
2022-08-01T16:30:24.876Z,96659.66
2022-08-01T16:32:54.413Z,96664.50
2022-08-01T16:35:24.551Z,96658.94
2022-08-01T16:38:00.790Z,96654.41
2022-08-01T16:40:28.411Z,96657.97
2022-08-01T16:42:56.157Z,96660.97
2022-08-01T16:45:26.131Z,96664.19
2022-08-01T16:47:56.811Z,96664.47
2022-08-01T16:50:28.833Z,96660.00
2022-08-01T16:52:56.594Z,96655.50
2022-08-01T16:55:24.225Z,96654.50
2022-08-01T16:57:51.752Z,96645.16
2022-08-01T17:00:21.035Z,96651.09
2022-08-01T17:02:49.411Z,96640.16
2022-08-01T17:05:18.299Z,96646.63
2022-08-01T17:07:45.826Z,96657.63
2022-08-01T17:10:14.150Z,96669.91
2022-08-01T17:12:42.410Z,96672.13
2022-08-01T17:15:10.866Z,96675.84
2022-08-01T17:17:38.472Z,96674.28
2022-08-01T17:20:07.119Z,96674.84
2022-08-01T17:22:36.000Z,96686.16
2022-08-01T17:25:03.793Z,96702.25
2022-08-01T17:27:31.308Z,96706.63
2022-08-01T17:29:58.829Z,96712.25
2022-08-01T17:32:26.332Z,96716.59
2022-08-01T17:34:53.834Z,96718.47
2022-08-01T17:37:21.316Z,96722.03
2022-08-01T17:39:50.152Z,96722.59
2022-08-01T17:42:17.712Z,96719.69
2022-08-01T17:44:48.965Z,96726.69
2022-08-01T17:47:34.412Z,96728.63
2022-08-01T17:50:04.228Z,96724.41
2022-08-01T17:52:32.550Z,96727.44
2022-08-01T17:55:02.259Z,96728.88
2022-08-01T17:57:30.756Z,96730.09
2022-08-01T17:59:58.890Z,96722.69
2022-08-01T18:02:27.202Z,96723.06
2022-08-01T18:04:54.983Z,96719.66
2022-08-01T18:08:01.458Z,96730.41
2022-08-01T18:10:11.963Z,96721.09
2022-08-01T18:12:39.865Z,96722.72
2022-08-01T18:15:08.169Z,96727.06
2022-08-01T18:17:35.987Z,96726.00
2022-08-01T18:20:03.656Z,96732.97
2022-08-01T18:22:33.068Z,96726.28
2022-08-01T18:25:08.371Z,96722.63
2022-08-01T18:28:22.661Z,96726.41
2022-08-01T18:30:26.077Z,96734.22
2022-08-01T18:32:53.612Z,96734.50
2022-08-01T18:35:22.520Z,96727.59
2022-08-01T18:37:55.447Z,96739.09
2022-08-01T18:40:23.413Z,96736.72
2022-08-01T18:42:54.121Z,96741.81
2022-08-01T18:45:21.984Z,96743.41
2022-08-01T18:47:49.719Z,96749.88
2022-08-01T18:50:17.322Z,96753.63
2022-08-01T18:52:44.864Z,96756.56
2022-08-01T18:55:12.459Z,96763.50
2022-08-01T18:57:42.598Z,96752.81
2022-08-01T19:00:14.671Z,96758.97
2022-08-01T19:02:42.705Z,96752.56
2022-08-01T19:05:11.174Z,96759.53
2022-08-01T19:08:05.577Z,96752.81
2022-08-01T19:10:26.356Z,96759.47
2022-08-01T19:12:53.856Z,96760.53
2022-08-01T19:15:22.770Z,96761.56
2022-08-01T19:17:50.304Z,96760.75
2022-08-01T19:20:17.847Z,96758.88
2022-08-01T19:22:45.479Z,96761.00
2022-08-01T19:25:15.126Z,96754.53
2022-08-01T19:27:46.910Z,96756.09
2022-08-01T19:30:15.194Z,96750.97
2022-08-01T19:32:45.868Z,96757.88
2022-08-01T19:35:16.885Z,96763.44
2022-08-01T19:37:47.636Z,96761.56
2022-08-01T19:40:27.151Z,96763.38
2022-08-01T19:42:56.982Z,96767.66
2022-08-01T19:45:25.089Z,96767.34
2022-08-01T19:47:56.532Z,96768.66
2022-08-01T19:50:25.440Z,96769.16
2022-08-01T19:52:54.875Z,96771.28
2022-08-01T19:55:24.356Z,96766.50
2022-08-01T20:00:42.730Z,96788.28
2022-08-01T20:03:12.874Z,96783.19
2022-08-01T20:05:41.340Z,96786.38
2022-08-01T20:08:10.198Z,96791.16
2022-08-01T20:10:38.447Z,96789.28
2022-08-01T20:13:07.450Z,96787.66
2022-08-01T20:15:35.314Z,96799.63
2022-08-01T20:18:02.863Z,96810.78
2022-08-01T20:20:33.360Z,96816.34
2022-08-01T20:23:03.980Z,96823.47
2022-08-01T20:25:39.962Z,96830.09
2022-08-01T20:28:11.242Z,96831.09
2022-08-01T20:30:38.875Z,96832.41
2022-08-01T20:33:07.183Z,96832.91
2022-08-01T20:35:51.986Z,96838.19
2022-08-01T20:38:23.203Z,96834.41
2022-08-01T20:40:52.654Z,96836.25
2022-08-01T20:43:21.901Z,96842.00
2022-08-01T20:45:50.371Z,96847.28
2022-08-01T20:48:18.483Z,96845.66
2022-08-01T20:51:06.956Z,96855.25
2022-08-01T20:53:40.831Z,96865.38
2022-08-01T20:56:15.779Z,96868.59
2022-08-01T20:58:58.815Z,96881.88
2022-08-01T21:01:29.588Z,96879.75
2022-08-01T21:04:10.811Z,96889.41
2022-08-01T21:06:43.743Z,96897.94
2022-08-01T21:09:14.797Z,96901.94
2022-08-01T21:11:50.191Z,96904.63
2022-08-01T21:14:22.131Z,96900.13
2022-08-01T21:16:57.615Z,96901.69
2022-08-01T21:19:28.448Z,96908.06
2022-08-01T21:22:12.025Z,96902.72
2022-08-01T21:24:58.306Z,96901.41
2022-08-01T21:27:33.602Z,96902.78
2022-08-01T21:30:04.112Z,96899.06
2022-08-01T21:32:34.156Z,96897.72
2022-08-01T21:35:02.841Z,96900.06
2022-08-01T21:37:32.652Z,96891.53
2022-08-01T21:40:10.018Z,96892.91
2022-08-01T21:42:39.772Z,96892.41
2022-08-01T21:45:09.526Z,96897.19
2022-08-01T21:47:38.300Z,96903.81
2022-08-01T21:50:09.447Z,96906.16
2022-08-01T21:52:45.125Z,96902.13
2022-08-01T21:55:33.946Z,96907.44
2022-08-01T21:58:14.650Z,96911.16
2022-08-01T22:00:47.807Z,96907.94
2022-08-01T22:03:24.255Z,96906.09
2022-08-01T22:05:53.737Z,96898.94
2022-08-01T22:08:34.044Z,96901.91
2022-08-01T22:11:05.245Z,96897.38
2022-08-01T22:13:34.688Z,96901.63
2022-08-01T22:16:04.285Z,96891.78
2022-08-01T22:18:34.084Z,96897.38
2022-08-01T22:21:03.341Z,96905.34
2022-08-01T22:23:36.652Z,96907.25
2022-08-01T22:26:07.424Z,96895.06
2022-08-01T22:28:35.409Z,96896.41
2022-08-01T22:31:03.201Z,96896.19
2022-08-01T22:33:31.727Z,96896.72
2022-08-01T22:36:00.204Z,96900.44
2022-08-01T22:38:27.725Z,96906.53
2022-08-01T22:41:02.164Z,96905.75
2022-08-01T22:43:39.573Z,96900.44
2022-08-01T22:46:17.457Z,96894.31
2022-08-01T22:48:49.264Z,96894.88
2022-08-01T22:51:32.625Z,96893.25
2022-08-01T22:54:06.008Z,96901.22
2022-08-01T22:56:39.997Z,96896.41
2022-08-01T22:59:14.719Z,96903.84
2022-08-01T23:01:47.885Z,96892.13
2022-08-01T23:04:24.281Z,96898.53
2022-08-01T23:07:05.453Z,96895.31
2022-08-01T23:09:52.747Z,96895.28
2022-08-01T23:12:24.509Z,96895.13
2022-08-01T23:14:54.663Z,96903.44
2022-08-01T23:17:27.219Z,96895.91
2022-08-01T23:19:58.978Z,96891.00
2022-08-01T23:22:30.690Z,96887.50
2022-08-01T23:25:03.980Z,96892.50
2022-08-01T23:28:03.791Z,96882.88
2022-08-01T23:30:25.733Z,96889.44
2022-08-01T23:32:53.302Z,96884.53
2022-08-01T23:35:20.998Z,96887.66
2022-08-01T23:37:50.934Z,96882.13
2022-08-01T23:40:19.478Z,96878.72
2022-08-01T23:42:48.506Z,96888.53
2022-08-01T23:45:16.088Z,96882.13
2022-08-01T23:47:43.741Z,96886.00
2022-08-01T23:50:11.411Z,96880.00
2022-08-01T23:52:49.736Z,96875.56
2022-08-01T23:55:18.257Z,96879.13
2022-08-01T23:57:48.721Z,96871.34
